Wetterstation Vordersexau
Wetterdaten: Woche 27.04.15 - 03.05.15 (KW18)
Datum Zeit Temp. A. Feuchte A. Luftdruck Regen Wind Richtung Taupunkt Windchill Windben
27.04.2015 00:00 12,6 C 83 % 1002,3 hPa 0,4 l/m 0,0 km/h O-SO 9,8 C 12,6 C 0,0 km/h
27.04.2015 01:00 12,4 C 82 % 1001,5 hPa 2,1 l/m 0,0 km/h O 9,4 C 12,4 C 0,0 km/h
27.04.2015 02:00 12,4 C 82 % 1001,2 hPa 0,0 l/m 0,0 km/h O-NO 9,4 C 12,4 C 0,0 km/h
27.04.2015 03:00 12,1 C 81 % 1000,5 hPa 0,0 l/m 0,0 km/h O 8,9 C 12,1 C 0,0 km/h
27.04.2015 04:00 11,9 C 81 % 1000,2 hPa 0,0 l/m 0,0 km/h O-SO 8,7 C 11,9 C 0,0 km/h
27.04.2015 05:00 10,9 C 81 % 999,9 hPa 0,0 l/m 0,0 km/h O-SO 7,8 C 10,9 C 0,0 km/h
27.04.2015 06:00 11,0 C 80 % 1000,1 hPa 0,0 l/m 0,0 km/h O-SO 7,7 C 11,0 C 0,0 km/h
27.04.2015 07:00 12,2 C 79 % 1000,3 hPa 0,0 l/m 35,0 km/h SO 8,7 C 2,9 C 19,4 km/h
27.04.2015 08:00 14,2 C 80 % 1000,3 hPa 0,0 l/m 0,0 km/h SO 10,8 C 14,2 C 0,0 km/h
27.04.2015 09:00 15,3 C 84 % 1000,3 hPa 0,0 l/m 0,0 km/h N-NW 12,6 C 15,3 C 0,0 km/h
27.04.2015 10:00 17,2 C 82 % 1000,4 hPa 0,0 l/m 0,0 km/h N-NO 14,1 C 17,2 C 0,0 km/h
27.04.2015 11:00 21,2 C 65 % 999,7 hPa 0,0 l/m 0,0 km/h N-NO 14,4 C 21,2 C 0,0 km/h
27.04.2015 12:00 23,4 C 59 % 998,9 hPa 0,0 l/m 0,0 km/h N-NW 14,9 C 23,4 C 0,0 km/h
27.04.2015 13:00 25,1 C 52 % 998,1 hPa 0,0 l/m 0,0 km/h W-NW 14,5 C 25,1 C 0,0 km/h
27.04.2015 14:00 20,7 C 61 % 997,9 hPa 0,0 l/m 11,7 km/h N-NO 12,9 C 18,9 C 6,5 km/h
27.04.2015 15:00 23,3 C 61 % 997,8 hPa 1,2 l/m 7,8 km/h N-NO 15,3 C 22,9 C 4,3 km/h
27.04.2015 16:00 22,6 C 55 % 997,6 hPa 0,0 l/m 1,3 km/h N-NW 13,1 C 22,6 C 0,7 km/h
27.04.2015 17:00 18,6 C 65 % 997,9 hPa 0,0 l/m 1,3 km/h N-NW 11,9 C 18,6 C 0,7 km/h
27.04.2015 18:00 16,1 C 71 % 999,0 hPa 0,0 l/m 0,0 km/h SO 10,8 C 16,1 C 0,0 km/h
27.04.2015 19:00 13,9 C 80 % 999,2 hPa 0,8 l/m 0,0 km/h N-NW 10,5 C 13,9 C 0,0 km/h
27.04.2015 20:00 13,3 C 83 % 1000,1 hPa 0,8 l/m 0,0 km/h N-NW 10,5 C 13,3 C 0,0 km/h
27.04.2015 21:00 12,1 C 84 % 1001,0 hPa 0,0 l/m 0,0 km/h N-NO 9,5 C 12,1 C 0,0 km/h
27.04.2015 22:00 11,2 C 84 % 1001,8 hPa 0,0 l/m 0,0 km/h N-NO 8,6 C 11,2 C 0,0 km/h
27.04.2015 23:00 9,8 C 84 % 1002,8 hPa 0,0 l/m 0,0 km/h N-NO 7,2 C 9,8 C 0,0 km/h
28.04.2015 00:00 9,6 C 84 % 1003,8 hPa 0,0 l/m 3,9 km/h N-NO 7,0 C 9,6 C 2,2 km/h
28.04.2015 01:00 8,9 C 84 % 1004,6 hPa 0,0 l/m 0,0 km/h N-NW 6,3 C 8,9 C 0,0 km/h
28.04.2015 02:00 8,4 C 84 % 1005,4 hPa 0,0 l/m 5,2 km/h N-NO 5,9 C 8,4 C 2,9 km/h
28.04.2015 03:00 7,8 C 83 % 1006,5 hPa 2,1 l/m 0,0 km/h N-NO 5,1 C 7,8 C 0,0 km/h
28.04.2015 04:00 7,2 C 83 % 1007,4 hPa 1,2 l/m 0,0 km/h N-NO 4,5 C 7,2 C 0,0 km/h
28.04.2015 05:00 7,1 C 83 % 1008,3 hPa 0,4 l/m 0,0 km/h N-NW 4,4 C 7,1 C 0,0 km/h
28.04.2015 06:00 6,9 C 83 % 1009,6 hPa 0,4 l/m 0,0 km/h N-NO 4,2 C 6,9 C 0,0 km/h
28.04.2015 07:00 6,6 C 82 % 1011,3 hPa 0,0 l/m 0,0 km/h W-NW 3,8 C 6,6 C 0,0 km/h
28.04.2015 08:00 6,7 C 83 % 1012,5 hPa 0,4 l/m 0,0 km/h SW 4,0 C 6,7 C 0,0 km/h
28.04.2015 09:00 8,2 C 83 % 1013,4 hPa 0,0 l/m 0,0 km/h S-SW 5,5 C 8,2 C 0,0 km/h
28.04.2015 10:00 10,9 C 84 % 1014,3 hPa 0,0 l/m 0,0 km/h W 8,3 C 10,9 C 0,0 km/h
28.04.2015 11:00 12,5 C 72 % 1015,0 hPa 0,0 l/m 0,0 km/h S 7,6 C 12,5 C 0,0 km/h
28.04.2015 12:00 9,9 C 79 % 1015,7 hPa 0,0 l/m 0,0 km/h S 6,4 C 9,9 C 0,0 km/h
28.04.2015 13:00 11,8 C 74 % 1016,1 hPa 0,0 l/m 0,0 km/h W-NW 7,3 C 11,8 C 0,0 km/h
28.04.2015 14:00 13,1 C 63 % 1016,7 hPa 0,0 l/m 0,0 km/h W 6,2 C 13,1 C 0,0 km/h
28.04.2015 15:00 14,2 C 63 % 1016,9 hPa 0,0 l/m 3,9 km/h W 7,3 C 14,2 C 2,2 km/h
28.04.2015 16:00 16,8 C 55 % 1017,0 hPa 0,0 l/m 0,0 km/h W 7,7 C 16,8 C 0,0 km/h
28.04.2015 17:00 13,1 C 60 % 1017,7 hPa 0,0 l/m 0,0 km/h W-SW 5,5 C 13,1 C 0,0 km/h
28.04.2015 18:00 13,0 C 64 % 1017,9 hPa 0,0 l/m 0,0 km/h N-NO 6,4 C 13,0 C 0,0 km/h
28.04.2015 19:00 11,8 C 62 % 1018,2 hPa 0,0 l/m 0,0 km/h SO 4,8 C 11,8 C 0,0 km/h
28.04.2015 20:00 7,8 C 75 % 1018,8 hPa 0,0 l/m 0,0 km/h SO 3,7 C 7,8 C 0,0 km/h
28.04.2015 21:00 5,6 C 81 % 1019,7 hPa 0,0 l/m 0,0 km/h SO 2,6 C 5,6 C 0,0 km/h
28.04.2015 22:00 4,9 C 83 % 1019,6 hPa 0,0 l/m 0,0 km/h SO 2,3 C 4,9 C 0,0 km/h
28.04.2015 23:00 4,0 C 85 % 1019,7 hPa 0,0 l/m 0,0 km/h SO 1,7 C 4,0 C 0,0 km/h
29.04.2015 00:00 3,7 C 85 % 1019,5 hPa 0,0 l/m 0,0 km/h SO 1,4 C 3,7 C 0,0 km/h
29.04.2015 01:00 3,3 C 84 % 1019,3 hPa 0,0 l/m 0,0 km/h SO 0,9 C 3,3 C 0,0 km/h
29.04.2015 02:00 2,9 C 84 % 1018,9 hPa 0,0 l/m 0,0 km/h SO 0,5 C 2,9 C 0,0 km/h
29.04.2015 03:00 2,6 C 84 % 1018,6 hPa 0,0 l/m 0,0 km/h SO 0,2 C 2,6 C 0,0 km/h
29.04.2015 04:00 2,4 C 84 % 1018,2 hPa 0,0 l/m 0,0 km/h SO -0,0 C 2,4 C 0,0 km/h
29.04.2015 05:00 2,3 C 84 % 1017,9 hPa 0,0 l/m 2,6 km/h SO -0,1 C 2,3 C 1,4 km/h
29.04.2015 06:00 2,8 C 84 % 1017,4 hPa 0,0 l/m 0,0 km/h SO 0,4 C 2,8 C 0,0 km/h
29.04.2015 07:00 4,9 C 84 % 1017,3 hPa 0,0 l/m 1,9 km/h SO 2,4 C 4,9 C 1,1 km/h
29.04.2015 08:00 12,6 C 71 % 1017,0 hPa 0,0 l/m 0,0 km/h NW 7,5 C 12,6 C 0,0 km/h
29.04.2015 09:00 15,9 C 59 % 1016,7 hPa 0,0 l/m 0,0 km/h W-NW 7,9 C 15,9 C 0,0 km/h
29.04.2015 10:00 16,4 C 56 % 1016,5 hPa 0,0 l/m 1,3 km/h W 7,6 C 16,4 C 0,7 km/h
29.04.2015 11:00 16,8 C 52 % 1016,0 hPa 0,0 l/m 0,0 km/h N-NW 6,9 C 16,8 C 0,0 km/h
29.04.2015 12:00 18,1 C 49 % 1015,3 hPa 0,0 l/m 0,0 km/h NW 7,2 C 18,1 C 0,0 km/h
29.04.2015 13:00 19,8 C 48 % 1014,4 hPa 0,0 l/m 7,1 km/h NW 8,5 C 19,5 C 4,0 km/h
29.04.2015 14:00 21,3 C 42 % 1013,5 hPa 0,0 l/m 0,0 km/h NW 7,9 C 21,3 C 0,0 km/h
29.04.2015 15:00 21,3 C 43 % 1012,8 hPa 0,0 l/m 3,2 km/h W-NW 8,2 C 21,3 C 1,8 km/h
29.04.2015 16:00 21,1 C 44 % 1012,6 hPa 0,0 l/m 2,6 km/h W-NW 8,4 C 21,1 C 1,4 km/h
29.04.2015 17:00 20,9 C 42 % 1012,7 hPa 0,0 l/m 0,0 km/h N 7,5 C 20,9 C 0,0 km/h
29.04.2015 18:00 20,5 C 41 % 1012,6 hPa 0,0 l/m 1,3 km/h N 6,8 C 20,5 C 0,7 km/h
29.04.2015 19:00 15,3 C 57 % 1012,4 hPa 0,0 l/m 0,0 km/h N 6,8 C 15,3 C 0,0 km/h
29.04.2015 20:00 12,0 C 67 % 1013,1 hPa 0,0 l/m 0,0 km/h N 6,1 C 12,0 C 0,0 km/h
29.04.2015 21:00 10,2 C 74 % 1013,6 hPa 0,0 l/m 0,0 km/h N 5,8 C 10,2 C 0,0 km/h
29.04.2015 22:00 9,3 C 77 % 1014,0 hPa 0,0 l/m 0,0 km/h N 5,5 C 9,3 C 0,0 km/h
29.04.2015 23:00 7,5 C 80 % 1014,4 hPa 0,0 l/m 0,0 km/h SO 4,3 C 7,5 C 0,0 km/h
30.04.2015 00:00 7,6 C 83 % 1014,8 hPa 0,0 l/m 0,0 km/h O 4,9 C 7,6 C 0,0 km/h
30.04.2015 01:00 7,8 C 83 % 1015,1 hPa 0,0 l/m 0,0 km/h SO 5,1 C 7,8 C 0,0 km/h
30.04.2015 02:00 6,9 C 84 % 1015,3 hPa 0,0 l/m 0,0 km/h SO 4,4 C 6,9 C 0,0 km/h
30.04.2015 03:00 7,6 C 84 % 1015,2 hPa 0,0 l/m 0,0 km/h O-SO 5,1 C 7,6 C 0,0 km/h
30.04.2015 04:00 7,5 C 84 % 1015,6 hPa 0,0 l/m 0,0 km/h O-SO 5,0 C 7,5 C 0,0 km/h
30.04.2015 05:00 6,8 C 85 % 1015,5 hPa 0,0 l/m 0,0 km/h O-SO 4,5 C 6,8 C 0,0 km/h
30.04.2015 06:00 7,2 C 85 % 1015,8 hPa 0,0 l/m 0,0 km/h NO 4,9 C 7,2 C 0,0 km/h
30.04.2015 07:00 8,9 C 84 % 1015,8 hPa 0,0 l/m 0,0 km/h W 6,3 C 8,9 C 0,0 km/h
30.04.2015 08:00 12,9 C 64 % 1015,5 hPa 0,0 l/m 20,1 km/h SW 6,3 C 7,0 C 11,2 km/h
30.04.2015 09:00 16,9 C 56 % 1015,4 hPa 0,0 l/m 13,6 km/h W 8,1 C 13,9 C 7,6 km/h
30.04.2015 10:00 19,0 C 46 % 1014,8 hPa 0,0 l/m 21,4 km/h W 7,1 C 14,6 C 11,9 km/h
30.04.2015 11:00 17,3 C 48 % 1014,4 hPa 0,0 l/m 22,7 km/h W-NW 6,2 C 12,2 C 12,6 km/h
30.04.2015 12:00 18,3 C 46 % 1013,5 hPa 0,0 l/m 25,3 km/h W-SW 6,5 C 13,0 C 14,0 km/h
30.04.2015 13:00 18,8 C 41 % 1012,8 hPa 0,0 l/m 17,5 km/h W-SW 5,3 C 15,2 C 9,7 km/h
30.04.2015 14:00 16,9 C 44 % 1012,6 hPa 0,0 l/m 14,9 km/h W 4,6 C 13,5 C 8,3 km/h
30.04.2015 15:00 15,9 C 47 % 1012,0 hPa 0,0 l/m 0,0 km/h S-SW 4,6 C 15,9 C 0,0 km/h
30.04.2015 16:00 14,8 C 45 % 1011,5 hPa 0,0 l/m 7,1 km/h W-NW 3,0 C 14,4 C 4,0 km/h
30.04.2015 17:00 12,6 C 57 % 1012,4 hPa 0,0 l/m 30,5 km/h S-SO 4,3 C 4,2 C 16,9 km/h
30.04.2015 18:00 10,9 C 71 % 1012,0 hPa 0,0 l/m 0,0 km/h S-SO 5,9 C 10,9 C 0,0 km/h
30.04.2015 19:00 11,1 C 70 % 1012,0 hPa 0,0 l/m 0,0 km/h SO 5,8 C 11,1 C 0,0 km/h
30.04.2015 20:00 9,9 C 77 % 1012,3 hPa 0,4 l/m 0,0 km/h S 6,1 C 9,9 C 0,0 km/h
30.04.2015 21:00 9,0 C 82 % 1012,6 hPa 0,8 l/m 1,9 km/h S 6,1 C 9,0 C 1,1 km/h
30.04.2015 22:00 8,5 C 84 % 1012,1 hPa 0,8 l/m 0,0 km/h S 6,0 C 8,5 C 0,0 km/h
30.04.2015 23:00 8,4 C 84 % 1011,2 hPa 0,8 l/m 0,0 km/h S 5,9 C 8,4 C 0,0 km/h
01.05.2015 00:00 8,6 C 84 % 1010,9 hPa 0,4 l/m 0,0 km/h S-SO 6,1 C 8,6 C 0,0 km/h
01.05.2015 01:00 8,5 C 84 % 1010,3 hPa 0,4 l/m 0,0 km/h S-SO 6,0 C 8,5 C 0,0 km/h
01.05.2015 02:00 8,5 C 84 % 1009,1 hPa 0,8 l/m 0,0 km/h S-SO 6,0 C 8,5 C 0,0 km/h
01.05.2015 03:00 8,6 C 84 % 1008,5 hPa 0,4 l/m 0,0 km/h SO 6,1 C 8,6 C 0,0 km/h
01.05.2015 04:00 8,6 C 83 % 1007,3 hPa 0,8 l/m 0,0 km/h O-NO 5,9 C 8,6 C 0,0 km/h
01.05.2015 05:00 8,7 C 83 % 1006,6 hPa 0,4 l/m 0,0 km/h O-SO 6,0 C 8,7 C 0,0 km/h
01.05.2015 06:00 8,9 C 82 % 1005,7 hPa 1,2 l/m 0,0 km/h SO 6,0 C 8,9 C 0,0 km/h
01.05.2015 07:00 9,2 C 81 % 1005,2 hPa 1,2 l/m 0,0 km/h SO 6,1 C 9,2 C 0,0 km/h
01.05.2015 08:00 9,8 C 81 % 1004,7 hPa 1,2 l/m 0,0 km/h SO 6,7 C 9,8 C 0,0 km/h
01.05.2015 09:00 10,3 C 80 % 1004,4 hPa 1,7 l/m 0,0 km/h SO 7,0 C 10,3 C 0,0 km/h
01.05.2015 10:00 11,8 C 81 % 1003,9 hPa 0,8 l/m 0,0 km/h NW 8,6 C 11,8 C 0,0 km/h
01.05.2015 11:00 11,4 C 83 % 1003,6 hPa 0,8 l/m 0,0 km/h W-NW 8,6 C 11,4 C 0,0 km/h
01.05.2015 12:00 10,9 C 82 % 1003,8 hPa 1,7 l/m 0,0 km/h W 7,9 C 10,9 C 0,0 km/h
01.05.2015 13:00 11,2 C 82 % 1003,4 hPa 0,4 l/m 0,0 km/h W-NW 8,2 C 11,2 C 0,0 km/h
01.05.2015 14:00 11,6 C 83 % 1003,4 hPa 0,0 l/m 3,2 km/h W 8,8 C 11,6 C 1,8 km/h
01.05.2015 15:00 11,3 C 84 % 1003,0 hPa 0,4 l/m 0,0 km/h W 8,7 C 11,3 C 0,0 km/h
01.05.2015 16:00 11,3 C 83 % 1002,6 hPa 0,4 l/m 44,1 km/h W 8,5 C 0,3 C 24,5 km/h
01.05.2015 17:00 11,3 C 84 % 1002,2 hPa 0,4 l/m 0,0 km/h W 8,7 C 11,3 C 0,0 km/h
01.05.2015 18:00 10,7 C 84 % 1002,1 hPa 0,0 l/m 44,7 km/h W 8,1 C -0,7 C 24,8 km/h
01.05.2015 19:00 10,3 C 82 % 1002,2 hPa 0,4 l/m 0,0 km/h W-NW 7,4 C 10,3 C 0,0 km/h
01.05.2015 20:00 10,1 C 80 % 1002,3 hPa 0,0 l/m 51,8 km/h NW 6,8 C -2,3 C 28,8 km/h
01.05.2015 21:00 9,8 C 79 % 1003,4 hPa 0,4 l/m 0,0 km/h NW 6,3 C 9,8 C 0,0 km/h
01.05.2015 22:00 9,6 C 78 % 1004,0 hPa 1,7 l/m 0,0 km/h S-SW 6,0 C 9,6 C 0,0 km/h
01.05.2015 23:00 9,4 C 77 % 1005,1 hPa 2,9 l/m 0,0 km/h S-SW 5,6 C 9,4 C 0,0 km/h
02.05.2015 00:00 9,4 C 77 % 1005,7 hPa 0,8 l/m 0,0 km/h S-SW 5,6 C 9,4 C 0,0 km/h
02.05.2015 01:00 9,3 C 76 % 1006,4 hPa 0,0 l/m 0,0 km/h W-SW 5,3 C 9,3 C 0,0 km/h
02.05.2015 02:00 9,0 C 75 % 1005,8 hPa 0,0 l/m 0,0 km/h W 4,8 C 9,0 C 0,0 km/h
02.05.2015 03:00 8,9 C 75 % 1006,4 hPa 0,0 l/m 35,6 km/h W 4,7 C -2,0 C 19,8 km/h
02.05.2015 04:00 8,6 C 75 % 1007,2 hPa 0,0 l/m 44,7 km/h W 4,4 C -3,8 C 24,8 km/h
02.05.2015 05:00 8,5 C 74 % 1008,1 hPa 0,0 l/m 27,9 km/h W 4,1 C -1,0 C 15,5 km/h
02.05.2015 06:00 8,6 C 73 % 1008,9 hPa 0,0 l/m 30,5 km/h W 4,0 C -1,4 C 16,9 km/h
02.05.2015 07:00 9,1 C 73 % 1009,7 hPa 0,0 l/m 54,4 km/h W 4,5 C -4,1 C 30,2 km/h
02.05.2015 08:00 10,1 C 71 % 1009,9 hPa 0,0 l/m 0,0 km/h W 5,1 C 10,1 C 0,0 km/h
02.05.2015 09:00 11,3 C 74 % 1010,4 hPa 0,0 l/m 0,0 km/h S-SO 6,8 C 11,3 C 0,0 km/h
02.05.2015 10:00 12,6 C 84 % 1010,4 hPa 0,0 l/m 0,0 km/h W 10,0 C 12,6 C 0,0 km/h
02.05.2015 11:00 14,3 C 84 % 1010,1 hPa 0,0 l/m 0,0 km/h N-NO 11,6 C 14,3 C 0,0 km/h
02.05.2015 12:00 16,7 C 77 % 1009,9 hPa 0,0 l/m 0,0 km/h W-NW 12,6 C 16,7 C 0,0 km/h
02.05.2015 13:00 16,2 C 76 % 1010,0 hPa 0,0 l/m 0,0 km/h W-NW 12,0 C 16,2 C 0,0 km/h
02.05.2015 14:00 17,8 C 74 % 1009,8 hPa 0,0 l/m 0,0 km/h S-SO 13,1 C 17,8 C 0,0 km/h
02.05.2015 15:00 18,7 C 70 % 1009,6 hPa 0,0 l/m 0,0 km/h S-SO 13,1 C 18,7 C 0,0 km/h
02.05.2015 16:00 18,3 C 72 % 1009,1 hPa 0,0 l/m 0,0 km/h NO 13,2 C 18,3 C 0,0 km/h
02.05.2015 17:00 17,9 C 73 % 1008,8 hPa 0,0 l/m 0,0 km/h W-SW 13,0 C 17,9 C 0,0 km/h
02.05.2015 18:00 17,3 C 74 % 1008,4 hPa 0,0 l/m 0,0 km/h W-SW 12,6 C 17,3 C 0,0 km/h
02.05.2015 19:00 15,6 C 79 % 1008,1 hPa 0,0 l/m 0,0 km/h S-SW 12,0 C 15,6 C 0,0 km/h
02.05.2015 20:00 13,6 C 83 % 1008,6 hPa 1,7 l/m 2,6 km/h S-SO 10,8 C 13,6 C 1,4 km/h
02.05.2015 21:00 11,9 C 84 % 1008,7 hPa 0,0 l/m 0,0 km/h S-SO 9,3 C 11,9 C 0,0 km/h
02.05.2015 22:00 11,8 C 84 % 1008,5 hPa 0,4 l/m 0,0 km/h SO 9,2 C 11,8 C 0,0 km/h
02.05.2015 23:00 11,4 C 84 % 1007,4 hPa 0,4 l/m 0,0 km/h O-NO 8,8 C 11,4 C 0,0 km/h
03.05.2015 00:00 10,9 C 83 % 1006,3 hPa 0,8 l/m 0,0 km/h O-NO 8,1 C 10,9 C 0,0 km/h
03.05.2015 01:00 10,9 C 82 % 1005,7 hPa 0,8 l/m 0,0 km/h O-SO 7,9 C 10,9 C 0,0 km/h
03.05.2015 02:00 11,0 C 81 % 1005,0 hPa 1,2 l/m 0,0 km/h O-SO 7,9 C 11,0 C 0,0 km/h
03.05.2015 03:00 11,2 C 80 % 1004,9 hPa 0,8 l/m 44,7 km/h N-NO 7,9 C 0,1 C 24,8 km/h
03.05.2015 04:00 11,8 C 78 % 1004,7 hPa 0,4 l/m 0,0 km/h SW 8,1 C 11,8 C 0,0 km/h
03.05.2015 05:00 14,1 C 74 % 1004,5 hPa 0,0 l/m 22,0 km/h S 9,5 C 8,1 C 12,2 km/h
03.05.2015 06:00 14,9 C 83 % 1004,9 hPa 0,0 l/m 13,0 km/h W-SW 12,0 C 11,8 C 7,2 km/h
03.05.2015 07:00 15,0 C 85 % 1005,3 hPa 0,0 l/m 7,1 km/h SW 12,5 C 14,6 C 4,0 km/h
03.05.2015 08:00 15,5 C 84 % 1005,2 hPa 0,0 l/m 13,0 km/h W 12,8 C 12,5 C 7,2 km/h
03.05.2015 09:00 16,4 C 83 % 1005,4 hPa 0,0 l/m 9,1 km/h S-SW 13,5 C 15,1 C 5,0 km/h
03.05.2015 10:00 16,3 C 83 % 1005,8 hPa 0,0 l/m 25,3 km/h SW 13,4 C 10,3 C 14,0 km/h
03.05.2015 11:00 16,6 C 83 % 1005,8 hPa 0,0 l/m 0,0 km/h S-SW 13,7 C 16,6 C 0,0 km/h
03.05.2015 12:00 16,1 C 84 % 1006,0 hPa 0,8 l/m 1,9 km/h S 13,4 C 16,1 C 1,1 km/h
03.05.2015 13:00 16,4 C 84 % 1005,6 hPa 1,2 l/m 0,0 km/h SO 13,7 C 16,4 C 0,0 km/h
03.05.2015 14:00 18,4 C 84 % 1005,0 hPa 0,0 l/m 0,0 km/h S 15,6 C 18,4 C 0,0 km/h
03.05.2015 15:00 18,1 C 83 % 1004,7 hPa 0,0 l/m 0,0 km/h S 15,2 C 18,1 C 0,0 km/h
03.05.2015 16:00 18,1 C 83 % 1004,3 hPa 0,0 l/m 0,0 km/h W 15,2 C 18,1 C 0,0 km/h
03.05.2015 17:00 18,4 C 83 % 1004,4 hPa 0,0 l/m 2,6 km/h SW 15,5 C 18,4 C 1,4 km/h
03.05.2015 18:00 17,4 C 84 % 1004,9 hPa 0,4 l/m 3,2 km/h W 14,7 C 17,4 C 1,8 km/h
03.05.2015 19:00 16,9 C 84 % 1005,3 hPa 0,4 l/m 0,0 km/h S-SW 14,2 C 16,9 C 0,0 km/h
03.05.2015 20:00 16,3 C 82 % 1005,7 hPa 0,8 l/m 0,0 km/h S 13,2 C 16,3 C 0,0 km/h
03.05.2015 21:00 16,1 C 80 % 1006,1 hPa 1,2 l/m 0,0 km/h W 12,6 C 16,1 C 0,0 km/h
03.05.2015 22:00 15,9 C 78 % 1007,2 hPa 0,0 l/m 0,0 km/h W-SW 12,1 C 15,9 C 0,0 km/h
03.05.2015 23:00 16,1 C 79 % 1007,3 hPa 0,0 l/m 3,9 km/h W-SW 12,5 C 16,1 C 2,2 km/h
Min-Datum _ 29.04.15 29.04.15 27.04.15 - 27.04.15 - 29.04.15 02.05.15 27.04.15
_ Min-Zeit 05:51 18:51 16:51 - 00:51 - 05:51 07:51 00:51
Minimum _ 2,3 C 41 % 997,6 hPa - 0,0 km/h - -0,1 C -4,1 C 0,0 km/h
Max-Datum _ 27.04.15 28.04.15 28.04.15 01.05.15 02.05.15 - 03.05.15 27.04.15 02.05.15
_ Max-Zeit 13:51 23:51 21:51 23:51 07:51 - 14:51 13:51 07:51
Maximum _ 25,1 C 85 % 1019,7 hPa 2,9 l/m 54,4 km/h
W
- 15,6 C 25,1 C 30,2 km/h
W
Durchschnitt _ 12,4 C 75 % 1008,8 hPa #44,3 l/m 4,5 km/h SO 7,8 C 11,4 C 2,5 km/h
www.sexauwetter.de